createdAt,value
2023-07-23T00:06:11.585Z,20.05
2023-07-23T00:16:15.929Z,19.95
2023-07-23T00:26:18.885Z,19.88
2023-07-23T00:36:23.075Z,19.88
2023-07-23T00:46:26.289Z,19.92
2023-07-23T00:56:31.517Z,19.78
2023-07-23T01:06:35.980Z,19.63
2023-07-23T01:16:40.830Z,19.57
2023-07-23T01:26:45.243Z,19.54
2023-07-23T01:36:49.117Z,19.68
2023-07-23T01:46:53.462Z,19.58
2023-07-23T01:56:57.789Z,19.53
2023-07-23T02:07:02.223Z,19.45
2023-07-23T02:17:06.320Z,19.43
2023-07-23T02:27:11.162Z,19.32
2023-07-23T02:37:14.465Z,19.29
2023-07-23T02:47:18.762Z,19.41
2023-07-23T02:57:21.856Z,19.34
2023-07-23T03:07:26.351Z,19.39
2023-07-23T03:17:29.418Z,19.30
2023-07-23T03:27:33.904Z,19.35
2023-07-23T03:37:37.458Z,19.26
2023-07-23T03:47:41.953Z,19.27
2023-07-23T03:57:45.100Z,19.17
2023-07-23T04:07:49.599Z,19.14
2023-07-23T04:17:52.779Z,19.22
2023-07-23T04:27:57.275Z,19.14
2023-07-23T04:38:00.382Z,19.18
2023-07-23T04:48:04.925Z,19.11
2023-07-23T04:58:07.981Z,19.18
2023-07-23T05:08:12.557Z,19.21
2023-07-23T05:18:15.596Z,19.32
2023-07-23T05:28:19.895Z,19.35
2023-07-23T05:38:22.946Z,19.38
2023-07-23T05:48:27.541Z,19.48
2023-07-23T05:58:31.783Z,19.49
2023-07-23T06:08:36.390Z,19.75
2023-07-23T06:18:39.458Z,19.91
2023-07-23T06:28:43.869Z,19.89
2023-07-23T06:38:47.693Z,19.96
2023-07-23T06:48:52.247Z,20.02
2023-07-23T06:58:55.382Z,19.94
2023-07-23T07:08:59.805Z,19.94
2023-07-23T07:19:02.960Z,19.45
2023-07-23T07:29:07.464Z,18.45
2023-07-23T07:39:10.824Z,18.10
2023-07-23T07:49:15.182Z,18.16
2023-07-23T07:59:18.949Z,18.14
2023-07-23T08:09:26.040Z,18.13
2023-07-23T08:19:30.063Z,18.07
2023-07-23T08:29:39.487Z,18.40
2023-07-23T08:39:43.729Z,18.42
2023-07-23T08:49:49.207Z,18.15
2023-07-23T08:59:53.048Z,18.06
2023-07-23T09:09:59.618Z,18.50
2023-07-23T09:20:02.718Z,18.60
2023-07-23T09:30:08.236Z,18.20
2023-07-23T09:40:12.704Z,18.15
2023-07-23T09:50:18.963Z,18.90
2023-07-23T10:00:22.805Z,19.48
2023-07-23T10:10:27.468Z,19.76
2023-07-23T10:20:33.608Z,19.24
2023-07-23T10:30:39.094Z,18.93
2023-07-23T10:40:49.343Z,18.26
2023-07-23T10:51:09.094Z,18.28
2023-07-23T11:01:14.096Z,18.77
2023-07-23T11:11:19.765Z,19.06
2023-07-23T11:21:22.677Z,19.53
2023-07-23T11:31:27.364Z,19.82
2023-07-23T11:41:38.521Z,20.14
2023-07-23T11:51:43.658Z,20.34
2023-07-23T12:01:47.467Z,20.64
2023-07-23T12:11:52.833Z,20.74
2023-07-23T12:21:59.084Z,20.92
2023-07-23T12:32:14.300Z,21.23
2023-07-23T12:42:17.405Z,21.23
2023-07-23T12:52:22.470Z,21.41
2023-07-23T13:02:25.746Z,21.57
2023-07-23T13:12:29.945Z,21.77
2023-07-23T13:22:33.598Z,22.36
2023-07-23T13:32:37.810Z,22.93
2023-07-23T13:42:41.013Z,22.90
2023-07-23T13:52:45.762Z,22.79
2023-07-23T14:02:48.936Z,22.63
2023-07-23T14:12:55.532Z,22.46
2023-07-23T14:22:58.355Z,22.28
2023-07-23T14:33:02.665Z,22.28
2023-07-23T14:43:05.835Z,22.25
2023-07-23T14:53:10.791Z,22.10
2023-07-23T15:03:17.308Z,21.84
2023-07-23T15:13:22.456Z,21.70
2023-07-23T15:23:26.108Z,21.33
2023-07-23T15:33:30.853Z,21.37
2023-07-23T15:43:37.442Z,21.64
2023-07-23T15:53:41.793Z,21.73
2023-07-23T16:03:44.939Z,21.80
2023-07-23T16:13:49.707Z,21.82
2023-07-23T16:23:52.926Z,21.88
2023-07-23T16:33:57.878Z,21.90
2023-07-23T16:44:03.572Z,21.65
2023-07-23T16:54:08.586Z,21.58
2023-07-23T17:04:11.704Z,21.72
2023-07-23T17:14:16.129Z,21.72
2023-07-23T17:24:19.503Z,21.73
2023-07-23T17:34:23.801Z,21.69
2023-07-23T17:44:26.970Z,21.66
2023-07-23T17:54:31.813Z,21.24
2023-07-23T18:04:34.925Z,20.93
2023-07-23T18:14:39.706Z,20.96
2023-07-23T18:24:44.049Z,20.86
2023-07-23T18:34:48.545Z,20.63
2023-07-23T18:44:51.798Z,20.38
2023-07-23T18:54:56.246Z,20.21
2023-07-23T19:04:59.737Z,20.25
2023-07-23T19:15:04.667Z,20.18
2023-07-23T19:25:08.249Z,20.20
2023-07-23T19:35:12.714Z,20.04
2023-07-23T19:45:17.312Z,19.90
2023-07-23T19:55:22.125Z,19.88
2023-07-23T20:05:25.160Z,19.98
2023-07-23T20:15:29.677Z,19.88
2023-07-23T20:25:33.064Z,19.85
2023-07-23T20:35:38.926Z,19.83
2023-07-23T20:45:42.008Z,19.77
2023-07-23T20:55:46.506Z,19.48
2023-07-23T21:05:49.658Z,19.26
2023-07-23T21:15:56.262Z,19.14
2023-07-23T21:25:59.428Z,19.01
2023-07-23T21:36:03.847Z,18.91
2023-07-23T21:46:06.935Z,18.99
2023-07-23T21:56:11.222Z,18.89
2023-07-23T22:06:14.481Z,18.79
2023-07-23T22:16:18.955Z,18.79
2023-07-23T22:26:22.523Z,18.91
2023-07-23T22:36:28.746Z,18.91
2023-07-23T22:46:33.269Z,18.99
2023-07-23T22:56:38.719Z,18.95
2023-07-23T23:06:42.105Z,19.02
2023-07-23T23:16:46.693Z,19.10
2023-07-23T23:26:49.592Z,19.08
2023-07-23T23:36:53.997Z,19.05
2023-07-23T23:46:57.050Z,18.97
2023-07-23T23:57:02.763Z,18.98
